createdAt,value
2018-12-23T00:00:11.424Z,6.37
2018-12-23T00:00:46.230Z,6.85
2018-12-23T00:01:20.293Z,6.72
2018-12-23T00:01:54.234Z,6.10
2018-12-23T00:02:28.696Z,6.60
2018-12-23T00:03:02.638Z,5.92
2018-12-23T00:03:36.918Z,6.83
2018-12-23T00:04:11.330Z,6.37
2018-12-23T00:04:45.178Z,6.62
2018-12-23T00:05:19.079Z,6.35
2018-12-23T00:05:53.051Z,6.05
2018-12-23T00:06:27.171Z,6.30
2018-12-23T00:07:01.233Z,6.30
2018-12-23T00:07:35.507Z,6.17
2018-12-23T00:08:09.520Z,6.70
2018-12-23T00:08:43.523Z,6.17
2018-12-23T00:09:17.886Z,6.97
2018-12-23T00:09:52.075Z,6.12
2018-12-23T00:10:26.038Z,6.72
2018-12-23T00:10:59.930Z,6.70
2018-12-23T00:11:34.274Z,6.65
2018-12-23T00:12:08.133Z,6.22
2018-12-23T00:12:42.654Z,6.95
2018-12-23T00:13:16.731Z,6.85
2018-12-23T00:13:50.582Z,6.60
2018-12-23T00:14:24.521Z,7.10
2018-12-23T00:14:58.662Z,5.92
2018-12-23T00:15:32.500Z,5.90
2018-12-23T00:16:06.497Z,6.42
2018-12-23T00:16:40.489Z,6.53
2018-12-23T00:17:14.550Z,7.15
2018-12-23T00:17:48.400Z,6.42
2018-12-23T00:18:29.029Z,6.40
2018-12-23T00:19:03.003Z,6.10
2018-12-23T00:19:37.789Z,6.25
2018-12-23T00:20:11.879Z,6.60
2018-12-23T00:20:46.087Z,6.03
2018-12-23T00:21:19.982Z,6.62
2018-12-23T00:21:53.873Z,6.50
2018-12-23T00:22:27.752Z,6.72
2018-12-23T00:23:01.820Z,6.07
2018-12-23T00:23:35.817Z,6.70
2018-12-23T00:24:09.616Z,6.22
2018-12-23T00:24:43.485Z,6.45
2018-12-23T00:25:17.537Z,6.33
2018-12-23T00:25:51.513Z,6.45
2018-12-23T00:26:25.306Z,6.67
2018-12-23T00:26:59.326Z,6.05
2018-12-23T00:27:33.253Z,5.92
2018-12-23T00:28:08.031Z,6.70
2018-12-23T00:28:41.981Z,6.28
2018-12-23T00:29:15.804Z,6.83
2018-12-23T00:29:49.896Z,6.40
2018-12-23T00:30:23.870Z,6.12
2018-12-23T00:30:57.561Z,6.53
2018-12-23T00:31:31.562Z,5.75
2018-12-23T00:32:05.591Z,5.83
2018-12-23T00:32:39.472Z,6.10
2018-12-23T00:33:13.693Z,6.47
2018-12-23T00:33:47.899Z,5.87
2018-12-23T00:34:21.840Z,6.28
2018-12-23T00:34:55.707Z,6.10
2018-12-23T00:35:32.360Z,6.78
2018-12-23T00:36:05.992Z,6.95
2018-12-23T00:36:40.377Z,5.92
2018-12-23T00:37:14.377Z,5.62
2018-12-23T00:37:48.218Z,6.85
2018-12-23T00:38:22.083Z,6.40
2018-12-23T00:38:55.944Z,6.40
2018-12-23T00:39:30.034Z,6.42
2018-12-23T00:40:04.820Z,6.30
2018-12-23T00:40:38.673Z,7.37
2018-12-23T00:41:12.666Z,7.25
2018-12-23T00:41:46.373Z,6.25
2018-12-23T00:42:20.202Z,6.55
2018-12-23T00:42:53.968Z,6.60
2018-12-23T00:43:27.933Z,6.90
2018-12-23T00:44:01.850Z,6.95
2018-12-23T00:44:35.887Z,6.87
2018-12-23T00:45:16.584Z,6.50
2018-12-23T00:45:50.825Z,6.72
2018-12-23T00:46:24.926Z,6.30
2018-12-23T00:46:59.077Z,6.70
2018-12-23T00:47:32.861Z,6.25
2018-12-23T00:48:07.276Z,6.80
2018-12-23T00:48:41.322Z,6.40
2018-12-23T00:49:15.274Z,7.08
2018-12-23T00:49:49.279Z,7.03
2018-12-23T00:50:23.271Z,7.50
2018-12-23T00:50:57.509Z,8.60
2018-12-23T00:51:31.482Z,7.65
2018-12-23T00:52:05.459Z,6.78
2018-12-23T00:52:39.480Z,7.40
2018-12-23T00:53:13.382Z,6.97
2018-12-23T00:53:47.877Z,6.92
2018-12-23T00:54:21.903Z,7.83
2018-12-23T00:54:58.230Z,6.72
2018-12-23T00:55:34.115Z,7.42
2018-12-23T00:56:09.302Z,6.87
2018-12-23T00:56:43.220Z,7.30
2018-12-23T00:57:19.285Z,7.30
2018-12-23T00:57:55.894Z,6.57
2018-12-23T00:58:38.059Z,6.42
2018-12-23T00:59:12.854Z,6.97
2018-12-23T00:59:48.272Z,6.62
2018-12-23T01:00:23.970Z,8.13
2018-12-23T01:00:59.625Z,6.25
2018-12-23T01:01:35.364Z,6.78
2018-12-23T01:02:10.523Z,6.22
2018-12-23T01:02:46.322Z,7.47
2018-12-23T01:03:22.395Z,7.10
2018-12-23T01:03:57.227Z,6.75
2018-12-23T01:04:31.187Z,7.12
2018-12-23T01:05:06.270Z,6.75
2018-12-23T01:05:40.294Z,6.62
2018-12-23T01:06:14.156Z,7.03
2018-12-23T01:06:48.108Z,7.65
2018-12-23T01:07:22.775Z,7.87
2018-12-23T01:07:56.704Z,7.00
2018-12-23T01:08:30.465Z,6.87
2018-12-23T01:09:07.326Z,6.45
2018-12-23T01:09:48.342Z,6.05
2018-12-23T01:10:22.152Z,7.22
2018-12-23T01:10:56.311Z,6.60
2018-12-23T01:11:30.334Z,7.00
2018-12-23T01:12:04.254Z,7.42
2018-12-23T01:12:38.154Z,7.05
2018-12-23T01:13:12.210Z,6.75
2018-12-23T01:13:46.023Z,6.95
2018-12-23T01:14:19.998Z,7.22
2018-12-23T01:14:53.915Z,6.95
2018-12-23T01:15:27.900Z,6.92
2018-12-23T01:16:01.821Z,6.83
2018-12-23T01:16:35.863Z,6.77
2018-12-23T01:17:10.036Z,6.35
2018-12-23T01:17:43.986Z,6.72
2018-12-23T01:18:17.926Z,6.80
2018-12-23T01:18:52.545Z,7.20
2018-12-23T01:19:26.495Z,6.65
2018-12-23T01:20:00.401Z,7.15
2018-12-23T01:20:34.437Z,6.67
2018-12-23T01:21:08.523Z,6.70
2018-12-23T01:21:42.517Z,7.17
2018-12-23T01:22:16.398Z,7.53
2018-12-23T01:22:50.412Z,6.83
2018-12-23T01:23:24.237Z,6.30
2018-12-23T01:23:58.071Z,7.03
2018-12-23T01:24:32.195Z,6.28
2018-12-23T01:25:08.513Z,7.17
2018-12-23T01:25:42.258Z,7.37
2018-12-23T01:26:16.395Z,6.42
2018-12-23T01:26:50.272Z,7.72
2018-12-23T01:27:24.264Z,7.08
2018-12-23T01:27:58.842Z,6.70
2018-12-23T01:28:32.838Z,6.90
2018-12-23T01:29:06.769Z,5.95
2018-12-23T01:29:40.695Z,7.12
2018-12-23T01:30:15.073Z,7.35
2018-12-23T01:30:49.115Z,7.10
2018-12-23T01:31:23.076Z,7.62
2018-12-23T01:31:56.860Z,6.90
2018-12-23T01:32:30.840Z,7.15
2018-12-23T01:33:04.713Z,6.92
2018-12-23T01:33:38.744Z,7.00
2018-12-23T01:34:12.658Z,6.62
2018-12-23T01:34:46.805Z,6.50
2018-12-23T01:35:20.758Z,6.60
2018-12-23T01:35:55.176Z,7.55
2018-12-23T01:36:29.262Z,6.17
2018-12-23T01:37:03.098Z,6.53
2018-12-23T01:37:36.978Z,7.28
2018-12-23T01:38:10.822Z,7.47
2018-12-23T01:38:44.858Z,6.75
2018-12-23T01:39:18.598Z,6.85
2018-12-23T01:39:52.870Z,6.85
2018-12-23T01:40:26.944Z,6.90
2018-12-23T01:41:00.943Z,7.03
2018-12-23T01:41:35.077Z,8.00
2018-12-23T01:42:09.250Z,6.95
2018-12-23T01:42:43.277Z,6.55
2018-12-23T01:43:17.392Z,7.85
2018-12-23T01:43:51.304Z,6.58
2018-12-23T01:44:25.948Z,7.58
2018-12-23T01:44:59.862Z,7.37
2018-12-23T01:45:33.715Z,7.50
2018-12-23T01:46:07.502Z,7.40
2018-12-23T01:46:41.730Z,6.90
2018-12-23T01:47:15.416Z,7.92
2018-12-23T01:47:49.541Z,7.08
2018-12-23T01:48:23.462Z,7.45
2018-12-23T01:48:57.318Z,6.97
2018-12-23T01:49:31.130Z,7.22
2018-12-23T01:50:05.411Z,6.67
2018-12-23T01:50:39.308Z,6.80
2018-12-23T01:51:13.021Z,6.53
2018-12-23T01:51:46.922Z,7.05
2018-12-23T01:52:20.852Z,5.92
2018-12-23T01:52:54.843Z,7.58
2018-12-23T01:53:28.906Z,6.85
2018-12-23T01:54:04.058Z,6.40
2018-12-23T01:54:38.068Z,7.83
2018-12-23T01:55:14.995Z,7.03
2018-12-23T01:55:49.327Z,6.97
2018-12-23T01:56:23.087Z,7.00
2018-12-23T01:56:57.154Z,7.20
2018-12-23T01:57:31.385Z,7.58
2018-12-23T01:58:05.208Z,7.42
2018-12-23T01:58:39.131Z,7.30
2018-12-23T01:59:13.122Z,7.15
2018-12-23T01:59:46.878Z,7.58
2018-12-23T02:00:20.931Z,7.35
2018-12-23T02:00:54.955Z,7.80
2018-12-23T02:01:28.749Z,7.70
2018-12-23T02:02:02.754Z,6.72
2018-12-23T02:02:36.645Z,6.83
2018-12-23T02:03:10.488Z,6.90
2018-12-23T02:03:44.570Z,7.20
2018-12-23T02:04:18.556Z,7.33
2018-12-23T02:04:52.607Z,7.58
2018-12-23T02:05:26.545Z,7.55
2018-12-23T02:06:00.555Z,7.75
2018-12-23T02:06:34.478Z,7.42
2018-12-23T02:07:08.692Z,7.28
2018-12-23T02:07:42.591Z,6.65
2018-12-23T02:08:16.455Z,7.30
2018-12-23T02:08:50.563Z,7.70
2018-12-23T02:09:24.370Z,7.85
2018-12-23T02:09:58.402Z,7.58
2018-12-23T02:10:32.402Z,7.03
2018-12-23T02:11:06.385Z,7.75
2018-12-23T02:11:40.500Z,7.50
2018-12-23T02:12:15.491Z,7.22
2018-12-23T02:12:49.427Z,7.22
2018-12-23T02:13:23.541Z,7.15
2018-12-23T02:13:57.808Z,7.50
2018-12-23T02:14:31.934Z,7.60
2018-12-23T02:15:06.807Z,7.25
2018-12-23T02:15:40.786Z,7.47
2018-12-23T02:16:14.707Z,7.58
2018-12-23T02:16:48.859Z,8.13
2018-12-23T02:17:22.890Z,8.43
2018-12-23T02:17:56.590Z,7.42
2018-12-23T02:18:31.190Z,7.40
2018-12-23T02:19:05.099Z,7.92
2018-12-23T02:19:39.040Z,8.73
2018-12-23T02:20:13.069Z,8.05
2018-12-23T02:20:47.095Z,7.47
2018-12-23T02:21:21.847Z,8.20
2018-12-23T02:21:55.890Z,8.23
2018-12-23T02:22:29.774Z,7.62
2018-12-23T02:23:03.691Z,7.97
2018-12-23T02:23:37.747Z,8.20
2018-12-23T02:24:11.810Z,7.83
2018-12-23T02:24:45.586Z,8.38
2018-12-23T02:25:19.787Z,8.30
2018-12-23T02:25:53.735Z,8.48
2018-12-23T02:26:27.810Z,8.38
2018-12-23T02:27:01.699Z,8.23
2018-12-23T02:27:35.451Z,8.35
2018-12-23T02:28:09.424Z,7.67
2018-12-23T02:28:43.330Z,7.55
2018-12-23T02:29:17.381Z,7.78
2018-12-23T02:29:51.421Z,8.35
2018-12-23T02:30:25.472Z,9.10
2018-12-23T02:30:59.527Z,8.98
2018-12-23T02:31:34.963Z,8.38
2018-12-23T02:32:08.902Z,8.58
2018-12-23T02:32:42.859Z,8.63
2018-12-23T02:33:17.084Z,8.03
2018-12-23T02:33:51.027Z,8.95
2018-12-23T02:34:25.013Z,9.10
2018-12-23T02:34:58.859Z,9.00
2018-12-23T02:35:32.741Z,9.18
2018-12-23T02:36:06.744Z,8.85
2018-12-23T02:36:40.862Z,9.48
2018-12-23T02:37:14.582Z,9.20
2018-12-23T02:37:48.661Z,9.40
2018-12-23T02:38:22.394Z,9.48
2018-12-23T02:38:57.677Z,8.75
2018-12-23T02:39:32.262Z,9.85
2018-12-23T02:40:06.351Z,8.88
2018-12-23T02:40:40.391Z,8.65
2018-12-23T02:41:14.199Z,7.78
2018-12-23T02:41:47.916Z,9.55
2018-12-23T02:42:21.821Z,10.65
2018-12-23T02:42:55.712Z,8.80
2018-12-23T02:43:29.603Z,8.95
2018-12-23T02:44:03.810Z,8.75
2018-12-23T02:44:37.639Z,8.65
2018-12-23T02:45:11.613Z,9.90
2018-12-23T02:45:45.546Z,8.88
2018-12-23T02:46:19.393Z,8.95
2018-12-23T02:46:54.575Z,9.38
2018-12-23T02:47:28.495Z,8.35
2018-12-23T02:48:02.326Z,9.40
2018-12-23T02:48:36.363Z,9.25
2018-12-23T02:49:10.455Z,9.33
2018-12-23T02:49:44.598Z,8.88
2018-12-23T02:50:18.428Z,9.80
2018-12-23T02:50:52.398Z,9.80
2018-12-23T02:51:26.069Z,8.88
2018-12-23T02:52:00.049Z,10.45
2018-12-23T02:52:34.124Z,10.45
2018-12-23T02:53:07.947Z,9.00
2018-12-23T02:53:42.013Z,9.85
2018-12-23T02:54:15.926Z,10.45
2018-12-23T02:54:49.850Z,9.70
2018-12-23T02:55:23.714Z,9.73
2018-12-23T02:55:57.650Z,9.20
2018-12-23T02:56:31.444Z,9.93
2018-12-23T02:57:05.572Z,9.25
2018-12-23T02:57:39.458Z,8.65
2018-12-23T02:58:13.605Z,9.65
2018-12-23T02:58:47.282Z,9.68
2018-12-23T02:59:21.202Z,10.68
2018-12-23T02:59:55.830Z,10.85
2018-12-23T03:00:29.631Z,10.03
2018-12-23T03:01:03.650Z,9.90
2018-12-23T03:01:37.542Z,9.33
2018-12-23T03:02:11.763Z,10.10
2018-12-23T03:02:45.571Z,10.38
2018-12-23T03:03:19.478Z,10.93
2018-12-23T03:03:53.374Z,10.53
2018-12-23T03:04:27.239Z,10.82
2018-12-23T03:05:01.157Z,10.35
2018-12-23T03:05:35.311Z,9.83
2018-12-23T03:06:09.420Z,9.38
2018-12-23T03:06:43.511Z,10.93
2018-12-23T03:07:17.427Z,10.08
2018-12-23T03:07:51.450Z,10.20
2018-12-23T03:08:25.434Z,10.23
2018-12-23T03:08:59.551Z,10.10
2018-12-23T03:09:33.685Z,11.18
2018-12-23T03:10:09.039Z,10.40
2018-12-23T03:10:42.973Z,10.43
2018-12-23T03:11:16.930Z,10.13
2018-12-23T03:11:50.863Z,9.73
2018-12-23T03:12:24.925Z,10.15
2018-12-23T03:12:58.809Z,9.75
2018-12-23T03:13:32.915Z,9.35
2018-12-23T03:14:06.824Z,10.35
2018-12-23T03:14:40.669Z,9.63
2018-12-23T03:15:14.574Z,10.10
2018-12-23T03:15:48.603Z,10.13
2018-12-23T03:16:22.705Z,10.15
2018-12-23T03:16:56.890Z,10.58
2018-12-23T03:17:30.762Z,9.95
2018-12-23T03:18:05.192Z,10.55
2018-12-23T03:18:39.065Z,9.68
2018-12-23T03:19:12.933Z,10.72
2018-12-23T03:19:46.726Z,9.65
2018-12-23T03:20:20.915Z,9.90
2018-12-23T03:20:54.718Z,10.82
2018-12-23T03:21:28.939Z,10.72
2018-12-23T03:22:03.053Z,10.05
2018-12-23T03:22:37.267Z,10.43
2018-12-23T03:23:11.058Z,10.00
2018-12-23T03:23:44.969Z,9.95
2018-12-23T03:24:19.026Z,9.55
2018-12-23T03:24:52.961Z,10.53
2018-12-23T03:25:26.860Z,10.95
2018-12-23T03:26:00.535Z,10.72
2018-12-23T03:26:34.463Z,9.20
2018-12-23T03:27:08.786Z,9.30
2018-12-23T03:27:42.546Z,10.30
2018-12-23T03:28:16.707Z,10.63
2018-12-23T03:28:50.727Z,10.70
2018-12-23T03:29:24.754Z,10.15
2018-12-23T03:29:58.644Z,10.72
2018-12-23T03:30:32.585Z,10.43
2018-12-23T03:31:06.476Z,9.48
2018-12-23T03:31:40.205Z,11.20
2018-12-23T03:32:14.172Z,10.48
2018-12-23T03:32:48.087Z,10.98
2018-12-23T03:33:22.034Z,10.58
2018-12-23T03:33:56.082Z,10.45
2018-12-23T03:34:29.811Z,9.90
2018-12-23T03:35:09.545Z,10.68
2018-12-23T03:35:43.355Z,9.70
2018-12-23T03:36:17.129Z,10.28
2018-12-23T03:36:51.213Z,9.60
2018-12-23T03:37:25.658Z,9.53
2018-12-23T03:37:59.371Z,10.55
2018-12-23T03:38:40.110Z,10.05
2018-12-23T03:39:13.745Z,9.78
2018-12-23T03:39:47.866Z,9.18
2018-12-23T03:40:21.737Z,10.13
2018-12-23T03:40:55.717Z,11.55
2018-12-23T03:41:29.815Z,10.03
2018-12-23T03:42:03.881Z,10.25
2018-12-23T03:42:37.839Z,10.30
2018-12-23T03:43:12.017Z,9.23
2018-12-23T03:43:45.967Z,11.18
2018-12-23T03:44:20.034Z,9.60
2018-12-23T03:44:53.891Z,10.68
2018-12-23T03:45:27.911Z,9.53
2018-12-23T03:46:01.884Z,9.38
2018-12-23T03:46:36.401Z,10.35
2018-12-23T03:47:10.390Z,9.88
2018-12-23T03:47:44.182Z,9.88
2018-12-23T03:48:22.211Z,10.58
2018-12-23T03:48:56.211Z,9.83
2018-12-23T03:49:30.127Z,9.90
2018-12-23T03:50:05.289Z,10.65
2018-12-23T03:50:39.043Z,10.08
2018-12-23T03:51:13.172Z,9.38
2018-12-23T03:51:46.960Z,9.83
2018-12-23T03:52:20.835Z,9.38
2018-12-23T03:52:54.789Z,9.80
2018-12-23T03:54:31.605Z,10.67
2018-12-23T03:55:18.180Z,10.43
2018-12-23T03:56:04.799Z,10.45
2018-12-23T03:56:51.335Z,10.18
2018-12-23T03:57:37.927Z,9.63
2018-12-23T03:58:24.456Z,10.78
2018-12-23T03:59:11.110Z,11.15
2018-12-23T03:59:57.779Z,9.95
2018-12-23T04:00:44.560Z,11.03
2018-12-23T04:01:31.543Z,10.43
2018-12-23T04:02:18.184Z,9.60
2018-12-23T04:03:04.595Z,10.40
2018-12-23T04:03:50.989Z,10.72
2018-12-23T04:04:37.572Z,11.03
2018-12-23T04:05:24.104Z,10.13
2018-12-23T04:06:10.884Z,11.25
2018-12-23T04:06:57.885Z,11.95
2018-12-23T04:07:44.868Z,11.10
2018-12-23T04:08:31.802Z,10.88
2018-12-23T04:09:18.262Z,11.60
2018-12-23T04:10:05.419Z,10.85
2018-12-23T04:10:52.339Z,10.93
2018-12-23T04:11:39.254Z,11.03
2018-12-23T04:12:25.612Z,11.28
2018-12-23T04:13:12.494Z,11.30
2018-12-23T04:13:59.311Z,11.80
2018-12-23T04:14:46.156Z,11.53
2018-12-23T04:15:32.510Z,11.90
2018-12-23T04:16:19.080Z,11.25
2018-12-23T04:17:05.701Z,11.95
2018-12-23T04:17:52.430Z,11.73
2018-12-23T04:18:39.104Z,11.22
2018-12-23T04:19:25.802Z,11.65
2018-12-23T04:20:12.343Z,11.10
2018-12-23T04:20:59.197Z,12.18
2018-12-23T04:21:45.830Z,12.05
2018-12-23T04:22:32.398Z,12.13
2018-12-23T04:23:19.448Z,12.40
2018-12-23T04:24:06.243Z,12.28
2018-12-23T04:24:52.938Z,12.37
2018-12-23T04:25:41.555Z,12.68
2018-12-23T04:26:28.225Z,12.58
2018-12-23T04:27:14.939Z,12.55
2018-12-23T04:28:01.681Z,12.93
2018-12-23T04:28:48.287Z,11.57
2018-12-23T04:29:34.859Z,12.07
2018-12-23T04:30:22.735Z,13.10
2018-12-23T04:31:09.400Z,11.57
2018-12-23T04:31:55.903Z,12.80
2018-12-23T04:32:42.584Z,12.70
2018-12-23T04:33:29.272Z,11.88
2018-12-23T04:34:15.991Z,12.98
2018-12-23T04:35:02.744Z,12.07
2018-12-23T04:35:49.512Z,12.95
2018-12-23T04:36:36.137Z,12.05
2018-12-23T04:37:22.670Z,12.73
2018-12-23T04:38:09.570Z,11.83
2018-12-23T04:38:56.100Z,12.47
2018-12-23T04:39:42.891Z,14.33
2018-12-23T04:40:29.729Z,12.75
2018-12-23T04:41:16.344Z,12.78
2018-12-23T04:42:03.159Z,12.98
2018-12-23T04:42:49.952Z,12.90
2018-12-23T04:43:36.862Z,13.08
2018-12-23T04:44:23.993Z,13.55
2018-12-23T04:45:10.847Z,11.78
2018-12-23T04:45:57.622Z,12.75
2018-12-23T04:46:44.507Z,13.72
2018-12-23T04:47:31.082Z,13.50
2018-12-23T04:48:17.710Z,13.15
2018-12-23T04:49:04.715Z,12.55
2018-12-23T04:49:51.556Z,12.90
2018-12-23T04:50:38.301Z,14.13
2018-12-23T04:51:25.177Z,12.82
2018-12-23T04:52:12.000Z,12.50
2018-12-23T04:52:58.470Z,13.70
2018-12-23T04:53:45.087Z,13.88
2018-12-23T04:54:31.732Z,13.93
2018-12-23T04:55:18.284Z,13.95
2018-12-23T04:56:04.885Z,13.40
2018-12-23T04:56:52.044Z,13.43
2018-12-23T04:57:38.642Z,12.90
2018-12-23T04:58:25.331Z,13.10
2018-12-23T04:59:12.056Z,13.08
2018-12-23T04:59:58.835Z,13.48
2018-12-23T05:00:45.183Z,13.93
2018-12-23T05:01:32.239Z,14.90
2018-12-23T05:02:18.791Z,13.18
2018-12-23T05:03:05.201Z,13.30
2018-12-23T05:03:51.656Z,13.05
2018-12-23T05:04:38.352Z,13.53
2018-12-23T05:05:25.291Z,13.20
2018-12-23T05:06:11.878Z,13.90
2018-12-23T05:06:58.723Z,13.25
2018-12-23T05:07:45.274Z,14.05
2018-12-23T05:08:32.032Z,13.70
2018-12-23T05:09:18.959Z,14.40
2018-12-23T05:10:05.487Z,14.07
2018-12-23T05:10:51.982Z,13.38
2018-12-23T05:11:38.320Z,14.35
2018-12-23T05:12:24.899Z,13.58
2018-12-23T05:13:11.303Z,13.53
2018-12-23T05:13:57.672Z,14.13
2018-12-23T05:14:44.812Z,13.53
2018-12-23T05:15:31.562Z,13.95
2018-12-23T05:16:18.152Z,13.48
2018-12-23T05:17:04.575Z,14.33
2018-12-23T05:17:51.149Z,13.48
2018-12-23T05:18:38.523Z,13.40
2018-12-23T05:19:24.943Z,13.88
2018-12-23T05:20:11.482Z,14.28
2018-12-23T05:20:58.152Z,14.00
2018-12-23T05:21:44.561Z,13.43
2018-12-23T05:22:31.265Z,13.30
2018-12-23T05:23:17.902Z,15.30
2018-12-23T05:24:04.534Z,13.53
2018-12-23T05:24:51.103Z,14.00
2018-12-23T05:25:37.230Z,14.93
2018-12-23T05:26:23.911Z,13.75
2018-12-23T05:27:10.356Z,15.65
2018-12-23T05:27:57.079Z,14.25
2018-12-23T05:28:43.553Z,14.50
2018-12-23T05:29:30.358Z,14.90
2018-12-23T05:30:16.896Z,14.18
2018-12-23T05:31:03.563Z,14.73
2018-12-23T05:31:50.078Z,14.23
2018-12-23T05:32:36.810Z,15.08
2018-12-23T05:33:23.453Z,15.48
2018-12-23T05:34:10.399Z,14.07
2018-12-23T05:34:57.331Z,14.50
2018-12-23T05:35:44.359Z,14.55
2018-12-23T05:36:30.918Z,14.73
2018-12-23T05:37:17.358Z,13.58
2018-12-23T05:38:04.107Z,14.75
2018-12-23T05:38:51.001Z,14.30
2018-12-23T05:39:37.817Z,14.05
2018-12-23T05:40:24.499Z,14.05
2018-12-23T05:41:11.252Z,14.85
2018-12-23T05:41:57.904Z,14.35
2018-12-23T05:42:44.624Z,14.87
2018-12-23T05:43:31.157Z,14.38
2018-12-23T05:44:17.746Z,14.28
2018-12-23T05:45:04.582Z,14.43
2018-12-23T05:45:51.567Z,14.73
2018-12-23T05:46:38.140Z,13.95
2018-12-23T05:47:24.725Z,14.20
2018-12-23T05:48:11.385Z,13.13
2018-12-23T05:48:58.336Z,14.50
2018-12-23T05:49:45.453Z,13.88
2018-12-23T05:50:32.127Z,14.20
2018-12-23T05:51:18.736Z,14.47
2018-12-23T05:52:05.343Z,13.55
2018-12-23T05:52:52.123Z,14.15
2018-12-23T05:53:38.814Z,14.35
2018-12-23T05:54:25.853Z,14.53
2018-12-23T05:55:12.647Z,13.60
2018-12-23T05:55:58.491Z,13.83
2018-12-23T05:56:45.267Z,14.07
2018-12-23T05:57:31.867Z,13.50
2018-12-23T05:58:18.660Z,13.45
2018-12-23T05:59:05.276Z,14.35
2018-12-23T05:59:51.977Z,14.68
2018-12-23T06:00:38.679Z,12.80
2018-12-23T06:01:25.452Z,14.90
2018-12-23T06:02:11.856Z,13.20
2018-12-23T06:02:58.369Z,14.10
2018-12-23T06:03:44.940Z,13.20
2018-12-23T06:04:31.294Z,14.45
2018-12-23T06:05:17.979Z,13.32
2018-12-23T06:06:04.414Z,14.05
2018-12-23T06:06:50.995Z,13.22
2018-12-23T06:07:37.678Z,12.40
2018-12-23T06:08:24.418Z,13.68
2018-12-23T06:09:10.812Z,12.90
2018-12-23T06:09:57.435Z,13.75
2018-12-23T06:10:44.056Z,13.65
2018-12-23T06:11:30.428Z,13.15
2018-12-23T06:12:17.019Z,13.85
2018-12-23T06:13:03.655Z,14.93
2018-12-23T06:13:50.012Z,13.15
2018-12-23T06:14:36.683Z,13.58
2018-12-23T06:15:23.291Z,14.58
2018-12-23T06:16:09.752Z,14.38
2018-12-23T06:16:56.645Z,14.53
2018-12-23T06:17:43.000Z,13.05
2018-12-23T06:18:29.623Z,15.40
2018-12-23T06:19:16.284Z,14.38
2018-12-23T06:20:03.336Z,14.68
2018-12-23T06:20:50.392Z,13.85
2018-12-23T06:21:37.049Z,14.90
2018-12-23T06:22:23.343Z,14.40
2018-12-23T06:23:09.955Z,14.05
2018-12-23T06:23:56.655Z,14.60
2018-12-23T06:24:43.405Z,14.87
2018-12-23T06:25:30.026Z,15.23
2018-12-23T06:26:16.630Z,14.95
2018-12-23T06:27:02.924Z,15.43
2018-12-23T06:27:49.569Z,15.55
2018-12-23T06:28:36.229Z,13.78
2018-12-23T06:29:22.787Z,15.10
2018-12-23T06:30:09.497Z,15.38
2018-12-23T06:30:56.172Z,15.25
2018-12-23T06:31:43.115Z,14.18
2018-12-23T06:32:29.843Z,14.58
2018-12-23T06:33:16.616Z,15.55
2018-12-23T06:34:03.581Z,15.25
2018-12-23T06:34:50.234Z,14.63
2018-12-23T06:35:36.655Z,17.27
2018-12-23T06:36:24.377Z,14.85
2018-12-23T06:37:11.088Z,14.13
2018-12-23T06:37:57.722Z,14.60
2018-12-23T06:38:44.196Z,15.38
2018-12-23T06:39:30.817Z,14.50
2018-12-23T06:40:17.503Z,15.00
2018-12-23T06:41:03.956Z,15.58
2018-12-23T06:41:50.582Z,15.40
2018-12-23T06:42:37.478Z,16.07
2018-12-23T06:43:24.106Z,15.15
2018-12-23T06:44:10.732Z,15.40
2018-12-23T06:44:57.430Z,14.68
2018-12-23T06:45:44.362Z,14.47
2018-12-23T06:46:31.138Z,15.50
2018-12-23T06:47:18.372Z,14.60
2018-12-23T06:48:05.193Z,14.85
2018-12-23T06:48:51.939Z,14.00
2018-12-23T06:49:38.748Z,14.55
2018-12-23T06:50:25.551Z,13.40
2018-12-23T06:51:12.424Z,14.47
2018-12-23T06:51:59.246Z,14.35
2018-12-23T06:52:45.999Z,13.40
2018-12-23T06:53:32.818Z,13.75
2018-12-23T06:54:19.903Z,13.58
2018-12-23T06:55:06.512Z,13.98
2018-12-23T06:55:53.130Z,13.28
2018-12-23T06:56:39.864Z,13.50
2018-12-23T06:57:26.567Z,13.53
2018-12-23T06:58:13.332Z,14.30
2018-12-23T06:59:00.127Z,13.15
2018-12-23T06:59:46.894Z,14.20
2018-12-23T07:00:33.593Z,13.40
2018-12-23T07:01:20.303Z,13.58
2018-12-23T07:02:07.128Z,12.90
2018-12-23T07:02:53.784Z,12.73
2018-12-23T07:03:40.523Z,12.07
2018-12-23T07:04:27.362Z,12.35
2018-12-23T07:05:14.033Z,12.43
2018-12-23T07:06:00.760Z,12.23
2018-12-23T07:06:47.254Z,12.40
2018-12-23T07:07:33.866Z,13.30
2018-12-23T07:08:20.525Z,13.03
2018-12-23T07:09:06.903Z,13.53
2018-12-23T07:09:53.402Z,12.03
2018-12-23T07:10:39.970Z,12.50
2018-12-23T07:11:26.506Z,11.83
2018-12-23T07:12:13.087Z,12.35
2018-12-23T07:12:59.439Z,12.78
2018-12-23T07:13:45.796Z,12.95
2018-12-23T07:14:32.151Z,12.75
2018-12-23T07:15:18.626Z,12.13
2018-12-23T07:16:05.391Z,11.85
2018-12-23T07:16:52.291Z,11.40
2018-12-23T07:17:38.750Z,12.03
2018-12-23T07:18:25.392Z,12.47
2018-12-23T07:19:12.125Z,11.93
2018-12-23T07:19:58.405Z,12.03
2018-12-23T07:20:45.048Z,11.70
2018-12-23T07:21:31.455Z,12.15
2018-12-23T07:22:17.895Z,12.47
2018-12-23T07:23:04.716Z,11.10
2018-12-23T07:23:51.576Z,12.37
2018-12-23T07:24:37.984Z,12.55
2018-12-23T07:25:24.576Z,11.50
2018-12-23T07:26:11.401Z,11.45
2018-12-23T07:26:57.864Z,12.03
2018-12-23T07:27:44.223Z,11.28
2018-12-23T07:28:31.132Z,10.93
2018-12-23T07:29:17.733Z,11.90
2018-12-23T07:30:04.704Z,10.32
2018-12-23T07:30:51.370Z,11.03
2018-12-23T07:31:37.907Z,11.40
2018-12-23T07:32:24.586Z,11.08
2018-12-23T07:33:11.818Z,10.78
2018-12-23T07:33:58.863Z,11.93
2018-12-23T07:34:45.841Z,10.70
2018-12-23T07:35:32.522Z,11.18
2018-12-23T07:36:19.039Z,11.15
2018-12-23T07:37:05.696Z,10.60
2018-12-23T07:37:52.317Z,10.43
2018-12-23T07:38:38.808Z,10.93
2018-12-23T07:39:25.259Z,10.85
2018-12-23T07:40:11.953Z,11.50
2018-12-23T07:40:58.512Z,10.32
2018-12-23T07:41:45.141Z,11.63
2018-12-23T07:42:31.767Z,10.78
2018-12-23T07:43:18.462Z,10.28
2018-12-23T07:44:05.013Z,10.48
2018-12-23T07:44:51.956Z,10.30
2018-12-23T07:45:39.063Z,10.08
2018-12-23T07:46:25.847Z,10.82
2018-12-23T07:47:12.867Z,11.10
2018-12-23T07:47:59.450Z,10.35
2018-12-23T07:48:46.029Z,10.10
2018-12-23T07:49:32.644Z,10.78
2018-12-23T07:50:19.260Z,10.48
2018-12-23T07:51:06.459Z,10.75
2018-12-23T07:51:53.156Z,10.25
2018-12-23T07:52:39.694Z,10.48
2018-12-23T07:53:26.456Z,9.90
2018-12-23T07:54:13.323Z,10.50
2018-12-23T07:55:00.263Z,10.10
2018-12-23T07:55:46.984Z,9.63
2018-12-23T07:56:33.861Z,9.73
2018-12-23T07:57:20.609Z,9.88
2018-12-23T07:58:07.767Z,9.70
2018-12-23T07:58:54.558Z,9.48
2018-12-23T07:59:41.355Z,10.03
2018-12-23T08:00:28.238Z,10.00
2018-12-23T08:01:15.134Z,9.90
2018-12-23T08:02:02.026Z,10.10
2018-12-23T08:02:48.901Z,10.18
2018-12-23T08:03:36.016Z,9.55
2018-12-23T08:04:22.852Z,8.95
2018-12-23T08:05:09.449Z,9.13
2018-12-23T08:05:56.177Z,9.20
2018-12-23T08:06:43.031Z,9.25
2018-12-23T08:07:36.127Z,9.60
2018-12-23T08:08:18.663Z,10.03
2018-12-23T08:09:06.447Z,9.20
2018-12-23T08:09:53.366Z,9.78
2018-12-23T08:10:40.046Z,9.18
2018-12-23T08:11:26.494Z,9.60
2018-12-23T08:12:13.271Z,8.45
2018-12-23T08:12:59.957Z,9.35
2018-12-23T08:13:46.599Z,8.80
2018-12-23T08:14:33.039Z,8.23
2018-12-23T08:15:19.940Z,8.50
2018-12-23T08:16:12.746Z,8.73
2018-12-23T08:16:59.280Z,8.15
2018-12-23T08:17:45.940Z,8.60
2018-12-23T08:18:32.599Z,7.33
2018-12-23T08:19:19.131Z,9.13
2018-12-23T08:20:05.827Z,8.13
2018-12-23T08:20:52.580Z,7.85
2018-12-23T08:21:39.539Z,8.05
2018-12-23T08:22:27.837Z,7.28
2018-12-23T08:23:17.012Z,7.92
2018-12-23T08:24:03.696Z,7.95
2018-12-23T08:24:50.099Z,7.53
2018-12-23T08:25:36.425Z,8.60
2018-12-23T08:26:23.105Z,8.00
2018-12-23T08:27:09.765Z,7.45
2018-12-23T08:28:01.956Z,7.25
2018-12-23T08:28:48.263Z,7.65
2018-12-23T08:29:34.808Z,7.95
2018-12-23T08:30:21.436Z,7.58
2018-12-23T08:31:07.811Z,7.53
2018-12-23T08:31:54.179Z,7.22
2018-12-23T08:32:40.555Z,7.65
2018-12-23T08:33:27.166Z,7.78
2018-12-23T08:34:13.667Z,7.85
2018-12-23T08:35:00.263Z,7.80
2018-12-23T08:35:47.154Z,7.25
2018-12-23T08:36:33.707Z,6.62
2018-12-23T08:37:20.262Z,8.03
2018-12-23T08:38:06.810Z,7.08
2018-12-23T08:38:53.464Z,7.22
2018-12-23T08:39:39.814Z,7.40
2018-12-23T08:40:26.227Z,7.72
2018-12-23T08:41:14.868Z,7.47
2018-12-23T08:42:01.771Z,6.45
2018-12-23T08:42:48.392Z,7.05
2018-12-23T08:43:34.607Z,6.97
2018-12-23T08:44:21.203Z,7.60
2018-12-23T08:45:07.621Z,7.28
2018-12-23T08:45:54.162Z,6.47
2018-12-23T08:46:40.781Z,6.65
2018-12-23T08:47:27.283Z,7.17